LIMC

Milan/Malpensa Airport

Airport
ICAO code
LIMC
IATA Code
MXP
Summary
ICAO Region
EUR
ICAO Territory
Location

Milan, Lombardy

Serving
Milan
Elevation
768 ft
Coordinates
45° 37' 46" N , 8° 43' 43" E
KCC
Cfa
Metar
Observation
LIMC 170320Z 02005KT 9999 BKN070 21/19 Q1013 NOSIG
Station
Milano / Malpensa
Date/Time
2022-08-17 03:20:00
Wind direction
20°
Wind speed
05 kts
Lowest cloud amount
broken clouds
Temperature
21°C
Dew point
19°C
Humidity
88%
QNH
1013 hPa
Weather condition
n/a

Milano Malpensa Airport "City of Milan", former "Aeroporto Città di Busto Arsizio" is Milan's largest airport. It is located 39.97 km northwest of central Milan, Italy. It is one of 3 airports in the Milan metropolitan area.

Climatology

Humid “subtropical” climate (Köppen climate classification Cfa) - characterized by hot, humid summers and cool winters. Significant amounts of precipitation occur in all seasons in most areas. Winter rainfall (and sometimes snowfall) is associated with large storms that the westerlies steer from west to east. Most summer rainfall occurs during thunderstorms.

Runways

Designator Length Width Surface Rops
17L/35R 3920 60 ASP Yes/Yes
17R/35L 3920 60 ASP Yes/Yes

Airport map

Aerial View

SKYbrary Partners:

Safety knowledge contributed by: